Time;durP1;ratioP1;P1;durP2;ratioP2;P2;SDS_P1;SDS_P2;PMS_P1;PMS_P2;Temp;Humidity;BMP_temperature;BMP_pressure;BME280_temperature;BME280_humidity;BME280_pressure;Samples;Min_cycle;Max_cycle;Signal;HPM_P1;HPM_P2
2023/06/07 00:02:38;;;;;;;28.58;19.63;;;21.50;99.90;;;;;;5090422;28;20526;-75
2023/06/07 00:05:43;;;;;;;29.52;19.95;;;21.50;99.90;;;;;;5090545;28;20039;-75
2023/06/07 00:08:47;;;;;;;28.70;19.20;;;21.40;99.90;;;;;;5090214;28;20407;-75
2023/06/07 00:11:51;;;;;;;28.63;18.17;;;21.50;99.90;;;;;;5090287;28;20043;-76
2023/06/07 00:14:55;;;;;;;28.08;19.45;;;21.50;99.90;;;;;;5090494;28;20523;-75
2023/06/07 00:18:00;;;;;;;25.25;18.02;;;21.50;99.90;;;;;;5078026;28;20047;-75
2023/06/07 00:21:04;;;;;;;28.27;18.08;;;21.50;99.90;;;;;;5079022;28;20055;-75
2023/06/07 00:24:08;;;;;;;25.20;17.60;;;21.50;99.90;;;;;;5094162;28;20055;-75
2023/06/07 00:27:12;;;;;;;28.90;18.48;;;21.50;99.90;;;;;;5093949;28;20039;-75
2023/06/07 00:30:19;;;;;;;28.85;16.80;;;21.40;99.90;;;;;;5094060;28;20051;-75
2023/06/07 00:33:24;;;;;;;23.85;17.55;;;21.30;99.90;;;;;;5081785;28;20055;-75
2023/06/07 00:36:29;;;;;;;25.95;19.23;;;21.30;99.90;;;;;;5081423;28;20051;-75
2023/06/07 00:39:33;;;;;;;25.70;18.73;;;21.10;99.90;;;;;;5081604;28;20039;-75
2023/06/07 00:42:36;;;;;;;28.13;19.23;;;21.20;99.90;;;;;;5081211;28;20051;-75
2023/06/07 00:45:40;;;;;;;26.05;19.80;;;21.20;99.90;;;;;;5093737;28;20590;-75
2023/06/07 00:48:45;;;;;;;29.08;19.88;;;21.00;99.90;;;;;;5080962;28;20051;-75
2023/06/07 00:51:49;;;;;;;33.92;20.40;;;21.00;99.90;;;;;;5093767;28;20050;-75
2023/06/07 00:54:54;;;;;;;28.48;21.35;;;20.90;99.90;;;;;;5093218;28;20047;-75
2023/06/07 00:57:58;;;;;;;27.58;20.90;;;20.90;99.90;;;;;;5081262;28;20071;-76
2023/06/07 01:01:03;;;;;;;32.88;21.17;;;20.80;99.90;;;;;;5093434;28;20051;-75
2023/06/07 01:04:09;;;;;;;37.88;20.80;;;20.80;99.90;;;;;;5093512;28;20388;-75
2023/06/07 01:07:17;;;;;;;30.25;20.42;;;20.90;99.90;;;;;;5093338;28;20058;-75
2023/06/07 01:10:21;;;;;;;29.30;20.27;;;20.90;99.90;;;;;;5081044;28;20051;-75
2023/06/07 01:13:27;;;;;;;33.15;19.75;;;20.90;99.90;;;;;;5092580;28;20035;-75
2023/06/07 01:16:31;;;;;;;23.55;19.42;;;21.10;99.90;;;;;;5080624;28;20035;-75
2023/06/07 01:19:36;;;;;;;21.60;18.85;;;21.00;99.90;;;;;;5080526;28;20043;-75
2023/06/07 01:22:44;;;;;;;24.50;18.85;;;20.90;99.90;;;;;;5092840;28;20407;-76
2023/06/07 01:25:48;;;;;;;25.60;19.48;;;20.90;99.90;;;;;;5080655;28;20043;-75
2023/06/07 01:28:55;;;;;;;29.38;19.52;;;20.80;99.90;;;;;;5080390;28;20348;-75
2023/06/07 01:32:03;;;;;;;26.20;17.88;;;20.80;99.90;;;;;;5091554;28;20507;-75
2023/06/07 01:35:09;;;;;;;30.45;17.83;;;20.70;99.90;;;;;;5080310;28;20047;-75
2023/06/07 01:38:15;;;;;;;24.55;19.00;;;20.70;99.90;;;;;;5093668;28;20043;-75
2023/06/07 01:41:20;;;;;;;29.73;18.77;;;20.70;99.90;;;;;;5092754;28;20043;-75
2023/06/07 01:44:25;;;;;;;25.58;19.50;;;20.70;99.90;;;;;;5068764;28;20407;-75
2023/06/07 01:47:30;;;;;;;25.55;19.35;;;20.80;99.90;;;;;;5092785;28;20051;-75
2023/06/07 01:50:34;;;;;;;26.52;18.80;;;20.70;99.90;;;;;;5080034;28;20039;-75
2023/06/07 01:53:38;;;;;;;24.00;18.80;;;20.70;99.90;;;;;;5079945;28;20055;-75
2023/06/07 01:56:48;;;;;;;25.35;20.27;;;20.70;99.90;;;;;;5092700;28;20051;-75
2023/06/07 02:00:35;;;;;;;30.23;20.37;;;20.70;99.90;;;;;;5080131;28;20051;-76
2023/06/07 02:03:43;;;;;;;28.85;18.73;;;20.60;99.90;;;;;;5082498;28;20526;-75
2023/06/07 02:06:50;;;;;;;28.25;19.73;;;20.70;99.90;;;;;;5092175;28;20047;-74
2023/06/07 02:09:56;;;;;;;26.33;18.67;;;20.70;99.90;;;;;;5079635;28;20059;-75
2023/06/07 02:13:01;;;;;;;27.98;19.58;;;20.60;99.90;;;;;;5092341;28;20063;-77
2023/06/07 02:16:05;;;;;;;27.48;19.88;;;20.60;99.90;;;;;;5092094;28;20471;-76
2023/06/07 02:19:09;;;;;;;26.48;19.85;;;20.60;99.90;;;;;;5079445;28;20043;-76
2023/06/07 02:22:28;;;;;;;30.55;20.23;;;20.60;99.90;;;;;;5092501;28;20330;-76
2023/06/07 02:25:34;;;;;;;25.85;19.50;;;20.50;99.90;;;;;;5092309;28;20118;-76
2023/06/07 02:28:38;;;;;;;33.55;19.77;;;20.60;99.90;;;;;;5079337;28;20043;-76
2023/06/07 02:31:42;;;;;;;28.27;20.33;;;20.60;99.90;;;;;;5067728;28;20300;-76
2023/06/07 02:34:47;;;;;;;29.13;21.63;;;20.30;99.90;;;;;;5091776;28;20039;-76
2023/06/07 02:37:51;;;;;;;27.98;21.27;;;20.20;99.90;;;;;;5091765;28;20408;-76
2023/06/07 02:40:55;;;;;;;28.70;20.38;;;20.10;99.90;;;;;;5091785;28;20471;-76
2023/06/07 02:43:59;;;;;;;26.67;19.70;;;20.20;99.90;;;;;;5066913;28;20047;-75
2023/06/07 02:47:03;;;;;;;28.77;20.48;;;20.30;99.90;;;;;;5091338;28;20043;-76
2023/06/07 02:50:07;;;;;;;29.75;19.55;;;20.40;99.90;;;;;;5078841;28;20051;-76
2023/06/07 02:53:12;;;;;;;29.77;18.70;;;20.40;99.90;;;;;;5078866;28;20051;-76
2023/06/07 02:56:16;;;;;;;30.90;18.50;;;20.50;99.90;;;;;;5091242;28;20039;-75
2023/06/07 02:59:21;;;;;;;28.83;18.65;;;20.50;99.90;;;;;;5090632;28;20058;-76
2023/06/07 03:02:25;;;;;;;26.63;19.88;;;20.50;99.90;;;;;;5078670;28;20518;-76
2023/06/07 03:05:31;;;;;;;26.75;19.33;;;20.40;99.90;;;;;;5078354;28;20051;-75
2023/06/07 03:08:40;;;;;;;28.40;19.88;;;20.40;99.90;;;;;;5078516;28;20058;-76
2023/06/07 03:11:45;;;;;;;28.05;20.15;;;20.40;99.90;;;;;;5078554;28;20051;-75
2023/06/07 03:14:50;;;;;;;27.63;19.20;;;20.30;99.90;;;;;;5078800;28;20396;-75
2023/06/07 03:17:55;;;;;;;37.80;18.95;;;20.30;99.90;;;;;;5078494;28;20035;-76
2023/06/07 03:21:00;;;;;;;29.77;20.35;;;20.20;99.90;;;;;;5078614;28;20534;-76
2023/06/07 03:24:05;;;;;;;25.48;19.52;;;20.10;99.90;;;;;;5078870;28;20411;-76
2023/06/07 03:27:10;;;;;;;25.05;19.00;;;20.00;99.90;;;;;;5067075;28;20036;-77
2023/06/07 03:30:16;;;;;;;29.85;20.05;;;19.90;99.90;;;;;;5078366;28;20039;-76
2023/06/07 03:33:22;;;;;;;29.70;19.33;;;19.90;99.90;;;;;;5067136;28;20059;-77
2023/06/07 03:36:29;;;;;;;26.92;18.75;;;19.90;99.90;;;;;;5078572;28;20047;-76
2023/06/07 03:39:36;;;;;;;26.38;19.15;;;20.00;99.90;;;;;;5090443;28;20051;-76
2023/06/07 03:42:40;;;;;;;26.50;19.27;;;20.10;99.90;;;;;;5078951;28;20511;-76
2023/06/07 03:45:45;;;;;;;27.60;19.20;;;20.10;99.90;;;;;;5078502;28;20066;-75
2023/06/07 03:48:51;;;;;;;26.70;19.17;;;20.10;99.90;;;;;;5078055;28;20059;-76
2023/06/07 03:51:55;;;;;;;31.08;19.50;;;20.10;99.90;;;;;;5078003;28;20051;-76
2023/06/07 03:55:00;;;;;;;32.78;19.70;;;20.10;99.90;;;;;;5090803;28;20043;-77
2023/06/07 03:58:05;;;;;;;20.30;17.30;;;20.10;99.90;;;;;;5082120;28;20055;-75
2023/06/07 04:01:11;;;;;;;24.42;18.83;;;20.10;99.90;;;;;;5082208;28;20035;-76
2023/06/07 04:04:16;;;;;;;38.25;21.50;;;20.10;99.90;;;;;;5082066;28;20097;-75
2023/06/07 04:07:20;;;;;;;27.27;19.45;;;20.10;99.90;;;;;;5094885;28;20051;-75
2023/06/07 04:10:25;;;;;;;32.70;18.65;;;20.10;99.90;;;;;;5082169;28;20051;-77
2023/06/07 04:13:30;;;;;;;24.23;17.65;;;20.20;99.90;;;;;;5094824;28;20051;-76
2023/06/07 04:16:34;;;;;;;33.60;18.70;;;20.20;99.90;;;;;;5081735;28;20055;-76
2023/06/07 04:19:39;;;;;;;26.15;17.10;;;20.30;99.90;;;;;;5082435;28;20051;-77
2023/06/07 04:22:44;;;;;;;27.75;17.58;;;20.40;99.90;;;;;;5094591;28;20502;-75
2023/06/07 04:25:48;;;;;;;23.55;17.58;;;20.50;99.90;;;;;;5081524;28;20135;-75
2023/06/07 04:28:56;;;;;;;22.73;17.48;;;20.70;99.90;;;;;;5081962;28;20047;-76
2023/06/07 04:32:03;;;;;;;27.77;16.90;;;20.70;99.90;;;;;;5092947;28;20058;-76
2023/06/07 04:35:09;;;;;;;26.40;16.20;;;20.80;99.90;;;;;;5093467;28;20102;-76
2023/06/07 04:38:15;;;;;;;21.17;15.80;;;21.10;99.90;;;;;;5081556;28;20047;-76
2023/06/07 04:41:20;;;;;;;20.17;15.77;;;21.50;99.90;;;;;;5081663;28;20035;-76
2023/06/07 04:44:28;;;;;;;26.83;15.77;;;21.70;99.90;;;;;;5058578;28;20055;-77
2023/06/07 04:47:35;;;;;;;26.30;16.95;;;21.80;99.90;;;;;;5081241;28;20039;-76
2023/06/07 04:50:42;;;;;;;31.45;17.08;;;21.80;99.90;;;;;;5081160;28;20043;-76
2023/06/07 04:53:47;;;;;;;30.83;17.00;;;21.80;99.90;;;;;;5081086;28;20059;-77
2023/06/07 04:56:56;;;;;;;38.53;18.20;;;21.80;99.90;;;;;;5081240;28;20050;-76
2023/06/07 05:00:06;;;;;;;29.58;16.85;;;21.60;99.90;;;;;;5081369;28;20534;-77
2023/06/07 05:03:21;;;;;;;27.08;18.05;;;21.60;99.90;;;;;;5080935;28;20404;-76
2023/06/07 05:06:28;;;;;;;24.77;17.20;;;21.70;99.90;;;;;;5068963;28;20047;-75
2023/06/07 05:09:34;;;;;;;31.05;17.77;;;21.90;99.90;;;;;;5081180;28;20055;-76
2023/06/07 05:12:41;;;;;;;27.83;16.80;;;22.10;99.90;;;;;;5069431;28;20043;-77
2023/06/07 05:15:50;;;;;;;24.83;16.10;;;22.20;99.90;;;;;;5080616;28;20047;-77
2023/06/07 05:18:56;;;;;;;22.95;15.35;;;22.50;99.90;;;;;;5069417;28;20051;-65
2023/06/07 05:22:01;;;;;;;24.17;14.65;;;22.70;99.90;;;;;;5092045;28;20051;-66
2023/06/07 05:25:06;;;;;;;23.48;13.13;;;23.00;99.70;;;;;;5080324;28;20043;-66
2023/06/07 05:28:12;;;;;;;19.98;13.05;;;23.30;99.30;;;;;;5080586;28;20281;-65
2023/06/07 05:31:18;;;;;;;26.38;12.15;;;23.50;98.60;;;;;;5080498;28;20043;-64
2023/06/07 05:34:23;;;;;;;23.83;12.60;;;23.80;98.40;;;;;;5080490;28;20506;-65
2023/06/07 05:37:29;;;;;;;20.70;12.18;;;24.00;97.80;;;;;;5080585;28;20047;-65
2023/06/07 05:40:33;;;;;;;20.42;13.05;;;24.00;97.80;;;;;;5080225;28;20047;-65
2023/06/07 05:43:37;;;;;;;19.58;12.48;;;23.90;97.70;;;;;;5091777;28;20399;-64
2023/06/07 05:46:41;;;;;;;16.40;11.82;;;23.80;97.50;;;;;;5080435;28;20047;-65
2023/06/07 05:49:46;;;;;;;20.92;12.52;;;23.80;98.20;;;;;;5080052;28;20479;-65
2023/06/07 05:52:58;;;;;;;26.27;14.02;;;24.00;97.90;;;;;;5080004;28;20387;-65
2023/06/07 05:56:02;;;;;;;25.98;13.82;;;24.00;97.90;;;;;;5092757;28;20514;-64
2023/06/07 05:59:07;;;;;;;14.77;12.13;;;24.20;97.90;;;;;;5092247;28;20048;-64
2023/06/07 06:02:11;;;;;;;21.05;11.60;;;24.50;97.60;;;;;;5092232;28;20047;-65
2023/06/07 06:05:15;;;;;;;26.38;13.60;;;24.70;97.50;;;;;;5092045;28;20534;-65
2023/06/07 06:08:19;;;;;;;25.58;14.38;;;24.80;97.00;;;;;;5092308;28;20507;-64
2023/06/07 06:11:23;;;;;;;19.77;14.95;;;24.80;97.00;;;;;;5079535;28;20051;-68
2023/06/07 06:14:28;;;;;;;21.13;14.60;;;25.10;96.50;;;;;;5092052;28;20043;-67
2023/06/07 06:17:32;;;;;;;26.30;14.77;;;25.30;96.20;;;;;;5079394;28;20059;-69
2023/06/07 06:20:36;;;;;;;23.75;13.35;;;25.60;96.00;;;;;;5092273;28;20494;-68
2023/06/07 06:23:40;;;;;;;19.70;10.57;;;25.70;95.90;;;;;;5078733;28;20503;-67
2023/06/07 06:26:44;;;;;;;17.02;10.25;;;25.90;95.40;;;;;;5091656;28;20055;-68
2023/06/07 06:29:48;;;;;;;13.40;9.23;;;26.10;95.30;;;;;;5091394;28;20046;-67
2023/06/07 06:32:51;;;;;;;14.18;9.20;;;26.40;94.80;;;;;;5090959;28;20434;-68
2023/06/07 06:35:56;;;;;;;14.88;8.02;;;26.50;94.20;;;;;;5091954;28;20051;-69
2023/06/07 06:39:02;;;;;;;12.38;8.65;;;26.60;94.20;;;;;;5091701;28;20051;-68
2023/06/07 06:42:06;;;;;;;46.47;10.20;;;26.60;94.00;;;;;;5091657;28;20047;-68
2023/06/07 06:45:29;;;;;;;26.08;10.02;;;26.50;94.30;;;;;;5091665;28;20415;-68
2023/06/07 06:48:35;;;;;;;12.45;8.27;;;26.70;94.20;;;;;;5091850;28;20047;-68
2023/06/07 06:51:40;;;;;;;14.40;8.10;;;26.90;93.50;;;;;;5091371;28;20495;-67
2023/06/07 06:54:44;;;;;;;13.90;7.30;;;26.90;93.50;;;;;;5091128;28;20062;-66
2023/06/07 06:57:47;;;;;;;12.13;8.68;;;26.90;93.10;;;;;;5091228;28;20141;-67
2023/06/07 07:00:51;;;;;;;19.23;9.43;;;26.70;93.20;;;;;;5091428;28;20046;-68
2023/06/07 07:03:55;;;;;;;13.60;8.40;;;26.80;93.00;;;;;;5090882;28;20380;-68
2023/06/07 07:06:59;;;;;;;17.88;8.30;;;27.10;93.20;;;;;;5091093;28;20039;-68
2023/06/07 07:10:04;;;;;;;15.50;8.18;;;27.40;92.70;;;;;;5091279;28;20066;-67
2023/06/07 07:13:08;;;;;;;17.25;8.30;;;27.70;91.80;;;;;;5078650;28;20483;-67
2023/06/07 07:16:12;;;;;;;14.18;8.13;;;27.90;91.50;;;;;;5091035;28;20063;-67
2023/06/07 07:19:16;;;;;;;14.18;8.48;;;28.00;91.50;;;;;;5090799;28;20043;-67
2023/06/07 07:22:20;;;;;;;14.05;9.07;;;27.70;91.20;;;;;;5090744;28;20043;-67
2023/06/07 07:25:24;;;;;;;12.05;8.65;;;27.00;92.00;;;;;;5091140;28;20054;-67
2023/06/07 07:28:28;;;;;;;16.27;9.75;;;26.70;92.60;;;;;;5091035;28;20482;-67
2023/06/07 07:31:33;;;;;;;14.25;9.50;;;26.30;93.00;;;;;;5097274;28;20051;-67
2023/06/07 07:34:37;;;;;;;18.92;9.80;;;26.20;93.20;;;;;;5097363;28;20039;-68
2023/06/07 07:37:41;;;;;;;15.57;10.20;;;26.50;93.30;;;;;;5096817;28;20059;-67
2023/06/07 07:40:47;;;;;;;15.27;8.80;;;26.90;92.90;;;;;;5096823;28;20403;-67
2023/06/07 07:43:51;;;;;;;16.73;9.20;;;27.30;92.20;;;;;;5097472;28;20051;-67
2023/06/07 07:46:55;;;;;;;13.88;8.52;;;27.70;91.60;;;;;;5097371;28;20047;-66
2023/06/07 07:50:00;;;;;;;21.92;9.05;;;28.00;91.10;;;;;;5098461;28;20632;-67
2023/06/07 07:53:05;;;;;;;15.70;8.10;;;28.20;91.00;;;;;;5097404;28;20133;-68
2023/06/07 07:56:10;;;;;;;9.40;6.97;;;28.40;90.00;;;;;;5097704;28;20055;-69
2023/06/07 07:59:13;;;;;;;12.95;8.43;;;28.50;89.80;;;;;;5097493;28;20498;-70
2023/06/07 08:02:17;;;;;;;14.65;8.55;;;28.70;89.60;;;;;;5097414;28;20384;-67
2023/06/07 08:05:21;;;;;;;14.23;8.15;;;28.90;89.60;;;;;;5084781;28;20055;-68
2023/06/07 08:08:25;;;;;;;12.43;7.40;;;29.10;89.50;;;;;;5084559;28;20051;-69
2023/06/07 08:11:29;;;;;;;16.80;6.78;;;29.20;88.10;;;;;;5097390;28;20063;-68
2023/06/07 08:14:33;;;;;;;11.57;6.40;;;29.30;86.30;;;;;;5097167;28;20046;-74
2023/06/07 08:17:39;;;;;;;6.63;5.65;;;29.40;86.40;;;;;;5097339;28;20055;-71
2023/06/07 08:20:43;;;;;;;8.65;5.70;;;29.40;85.30;;;;;;5097124;28;20043;-69
2023/06/07 08:23:47;;;;;;;12.07;6.60;;;29.40;84.40;;;;;;5096881;28;20050;-71
2023/06/07 08:26:51;;;;;;;9.85;6.35;;;29.40;83.80;;;;;;5097640;28;20046;-73
2023/06/07 08:29:56;;;;;;;15.23;6.28;;;29.40;83.90;;;;;;5085520;28;20038;-75
2023/06/07 08:33:00;;;;;;;9.70;5.97;;;29.20;83.70;;;;;;5097624;28;20071;-71
2023/06/07 08:36:05;;;;;;;9.88;6.13;;;29.10;85.20;;;;;;5084997;28;20043;-70
2023/06/07 08:39:09;;;;;;;10.50;6.40;;;29.00;84.60;;;;;;5097222;28;20046;-70
2023/06/07 08:42:13;;;;;;;9.40;5.68;;;29.20;85.00;;;;;;5093464;28;20039;-69
2023/06/07 08:45:17;;;;;;;17.17;5.90;;;29.50;83.70;;;;;;5093750;28;20503;-72
2023/06/07 08:48:22;;;;;;;12.63;6.53;;;29.30;82.50;;;;;;5093662;28;20090;-69
2023/06/07 08:51:28;;;;;;;10.20;8.68;;;29.10;82.00;;;;;;5094068;28;20393;-70
2023/06/07 08:54:33;;;;;;;10.48;6.20;;;29.20;81.50;;;;;;5081570;28;20051;-68
2023/06/07 08:57:39;;;;;;;10.85;6.50;;;29.30;82.10;;;;;;5093519;28;20391;-68
2023/06/07 09:00:42;;;;;;;12.43;6.25;;;29.30;83.90;;;;;;5081466;28;20403;-69
2023/06/07 09:03:53;;;;;;;8.13;6.32;;;29.50;84.10;;;;;;5093664;28;20054;-71
2023/06/07 09:07:00;;;;;;;11.70;5.78;;;29.80;83.60;;;;;;5093911;28;20399;-73
2023/06/07 09:10:07;;;;;;;9.68;5.60;;;30.10;82.30;;;;;;5081459;28;20054;-73
2023/06/07 09:13:12;;;;;;;9.95;5.75;;;30.20;79.70;;;;;;5094428;28;20047;-70
2023/06/07 09:16:17;;;;;;;13.70;5.65;;;30.20;79.60;;;;;;5093395;28;20051;-70
2023/06/07 09:19:37;;;;;;;10.23;5.93;;;30.20;79.60;;;;;;5093842;28;20043;-68
2023/06/07 09:22:41;;;;;;;16.93;6.30;;;29.90;81.30;;;;;;5093651;28;20066;-68
2023/06/07 09:25:53;;;;;;;11.18;5.60;;;30.00;81.20;;;;;;5093598;28;20383;-68
2023/06/07 09:29:03;;;;;;;8.55;5.20;;;29.80;79.50;;;;;;5093112;28;20040;-69
2023/06/07 09:32:18;;;;;;;12.23;5.90;;;29.60;79.30;;;;;;5093397;28;20047;-69
2023/06/07 09:35:23;;;;;;;16.80;6.10;;;29.50;81.60;;;;;;5093243;28;20059;-70
2023/06/07 09:38:27;;;;;;;20.15;5.88;;;29.60;81.20;;;;;;5092855;28;20103;-67
2023/06/07 09:41:32;;;;;;;10.55;5.40;;;29.60;79.80;;;;;;5093158;28;20059;-68
2023/06/07 09:44:36;;;;;;;10.25;6.57;;;29.60;80.90;;;;;;5092604;28;20055;-68
2023/06/07 09:47:42;;;;;;;11.57;5.95;;;29.70;81.30;;;;;;5092915;28;20043;-66
2023/06/07 09:50:56;;;;;;;15.55;7.30;;;29.50;81.60;;;;;;5092554;28;20243;-66
2023/06/07 09:54:01;;;;;;;11.07;6.47;;;29.10;81.70;;;;;;5091987;28;20039;-66
2023/06/07 09:57:10;;;;;;;12.07;5.97;;;28.70;82.50;;;;;;5092657;28;20059;-69
2023/06/07 10:00:16;;;;;;;14.57;6.57;;;28.70;82.40;;;;;;5092616;28;20055;-65
2023/06/07 10:03:20;;;;;;;12.25;5.85;;;28.80;81.20;;;;;;5092395;28;20039;-66
2023/06/07 10:06:25;;;;;;;10.38;6.18;;;28.90;81.10;;;;;;5092651;28;20051;-68
2023/06/07 10:09:30;;;;;;;17.67;6.38;;;29.10;80.50;;;;;;5092408;28;20051;-68
2023/06/07 10:12:38;;;;;;;7.18;5.80;;;29.20;80.10;;;;;;5092420;28;20372;-67
2023/06/07 10:15:45;;;;;;;12.00;6.32;;;29.00;80.50;;;;;;5092213;28;20043;-67
2023/06/07 10:18:52;;;;;;;8.25;6.20;;;28.80;79.90;;;;;;5092485;28;20039;-68
2023/06/07 10:21:58;;;;;;;11.90;6.18;;;28.80;81.10;;;;;;5092269;28;20070;-67
2023/06/07 10:25:08;;;;;;;13.82;6.28;;;28.80;79.50;;;;;;5091784;28;20055;-67
2023/06/07 10:28:32;;;;;;;8.18;5.53;;;28.80;79.80;;;;;;5092197;28;20055;-70
2023/06/07 10:31:45;;;;;;;9.82;5.90;;;29.00;79.70;;;;;;5091631;28;20051;-71
2023/06/07 10:34:52;;;;;;;7.45;4.93;;;29.10;78.90;;;;;;5091634;28;20031;-72
2023/06/07 10:37:57;;;;;;;8.75;5.63;;;29.20;77.90;;;;;;5079178;28;20400;-68
2023/06/07 10:41:04;;;;;;;15.18;5.78;;;29.30;77.60;;;;;;5091589;28;20039;-68
2023/06/07 10:44:10;;;;;;;13.80;6.80;;;29.20;78.30;;;;;;5091575;28;20047;-71
2023/06/07 10:47:23;;;;;;;10.27;5.75;;;29.20;78.70;;;;;;5091402;28;20039;-70
2023/06/07 10:50:27;;;;;;;8.18;5.15;;;29.20;79.50;;;;;;5091391;28;20190;-71
2023/06/07 10:53:55;;;;;;;7.40;5.70;;;29.30;79.50;;;;;;5091480;28;20047;-71
2023/06/07 10:57:00;;;;;;;11.65;5.25;;;29.40;78.90;;;;;;5091451;28;20122;-72
2023/06/07 11:00:28;;;;;;;13.32;5.35;;;29.30;76.60;;;;;;5090883;28;20043;-72
2023/06/07 11:03:39;;;;;;;7.95;5.00;;;29.00;76.20;;;;;;5090726;28;20067;-71
2023/06/07 11:07:02;;;;;;;;;;;28.80;77.50;;;;;;5090736;28;20039;-72
2023/06/07 11:10:07;;;;;;;6.78;4.93;;;28.80;78.70;;;;;;5091459;28;20308;-71
2023/06/07 11:13:11;;;;;;;8.98;6.05;;;29.00;78.30;;;;;;5091722;28;20054;-71
2023/06/07 11:16:25;;;;;;;12.38;7.53;;;29.10;79.60;;;;;;5091196;28;20533;-72
2023/06/07 11:19:52;;;;;;;12.23;7.20;;;29.20;82.00;;;;;;5091536;28;20051;-73
2023/06/07 11:23:24;;;;;;;14.15;8.57;;;29.30;82.90;;;;;;5090950;28;20047;-72
2023/06/07 11:26:34;;;;;;;13.07;7.55;;;29.30;83.30;;;;;;5090926;28;20047;-72
2023/06/07 11:29:39;;;;;;;12.05;7.30;;;29.20;84.00;;;;;;5091064;28;20039;-71
2023/06/07 11:32:44;;;;;;;16.27;7.85;;;29.10;84.00;;;;;;5090845;28;20043;-72
2023/06/07 11:35:50;;;;;;;16.63;8.05;;;28.90;83.50;;;;;;5091014;28;20043;-72
2023/06/07 11:38:55;;;;;;;16.02;8.10;;;28.70;84.00;;;;;;5090686;28;20063;-73
2023/06/07 11:42:00;;;;;;;8.98;6.50;;;28.80;84.60;;;;;;5090758;28;20039;-73
2023/06/07 11:45:04;;;;;;;13.02;7.45;;;28.90;84.90;;;;;;5090614;28;20051;-74
2023/06/07 11:48:10;;;;;;;13.50;8.15;;;29.00;84.40;;;;;;5090579;28;20404;-72
2023/06/07 11:51:15;;;;;;;12.52;6.97;;;29.10;84.30;;;;;;5090577;28;20426;-71
2023/06/07 11:54:24;;;;;;;11.32;7.05;;;29.10;83.80;;;;;;5090511;28;20490;-72
2023/06/07 11:57:32;;;;;;;13.55;6.97;;;29.10;83.80;;;;;;5090669;28;20044;-71
2023/06/07 12:00:37;;;;;;;12.38;7.32;;;29.10;83.60;;;;;;5090950;28;20051;-72
2023/06/07 12:03:41;;;;;;;19.08;6.32;;;29.10;84.30;;;;;;5091026;28;20550;-72
2023/06/07 12:06:48;;;;;;;16.20;7.43;;;29.10;84.40;;;;;;5090394;28;20062;-73
2023/06/07 12:09:52;;;;;;;10.23;6.65;;;29.00;84.10;;;;;;5091100;28;20063;-73
2023/06/07 12:13:11;;;;;;;17.65;7.70;;;29.00;84.70;;;;;;5090355;28;20399;-73
2023/06/07 12:16:15;;;;;;;15.68;7.00;;;29.00;84.80;;;;;;5092153;28;20098;-72
2023/06/07 12:19:19;;;;;;;10.55;6.90;;;29.00;84.50;;;;;;5094687;28;20047;-72
2023/06/07 12:22:25;;;;;;;12.73;6.60;;;29.10;85.00;;;;;;5091622;28;20059;-69
2023/06/07 12:25:30;;;;;;;10.80;7.25;;;29.00;85.10;;;;;;5091505;28;20514;-70
2023/06/07 12:28:35;;;;;;;13.88;6.88;;;29.00;84.70;;;;;;5092313;28;20039;-71
2023/06/07 12:31:43;;;;;;;18.58;7.65;;;29.00;85.10;;;;;;5093081;28;20050;-73
2023/06/07 12:34:47;;;;;;;9.77;6.53;;;29.00;84.50;;;;;;5093693;28;20047;-72
2023/06/07 12:37:50;;;;;;;12.45;6.63;;;29.00;84.50;;;;;;5092305;28;20059;-71
2023/06/07 12:40:54;;;;;;;8.63;5.57;;;28.80;83.90;;;;;;5092844;28;20043;-71
2023/06/07 12:44:01;;;;;;;9.30;5.88;;;28.80;84.30;;;;;;5080638;28;20502;-70
2023/06/07 12:47:05;;;;;;;9.65;5.90;;;28.80;84.40;;;;;;5093967;28;20495;-70
2023/06/07 12:50:09;;;;;;;10.68;6.10;;;28.70;83.30;;;;;;5093410;28;20047;-70
2023/06/07 12:53:13;;;;;;;14.07;6.28;;;28.70;83.60;;;;;;5080975;28;20050;-68
2023/06/07 12:56:17;;;;;;;15.05;6.07;;;28.70;83.40;;;;;;5093731;28;20047;-70
2023/06/07 12:59:21;;;;;;;15.07;5.88;;;28.70;82.40;;;;;;5093437;28;20043;-68
2023/06/07 13:02:26;;;;;;;13.73;6.22;;;28.70;82.60;;;;;;5093832;28;20362;-68
2023/06/07 13:05:30;;;;;;;7.93;5.43;;;28.70;82.50;;;;;;5093300;28;20071;-66
2023/06/07 13:08:35;;;;;;;8.38;5.53;;;28.70;82.50;;;;;;5093403;28;20055;-65
2023/06/07 13:11:39;;;;;;;15.10;5.60;;;28.70;83.00;;;;;;5093395;28;20050;-65
2023/06/07 13:14:43;;;;;;;12.98;5.22;;;28.60;82.90;;;;;;5093378;28;20056;-66
2023/06/07 13:17:47;;;;;;;10.57;5.57;;;28.70;82.70;;;;;;5093557;28;20069;-64
2023/06/07 13:20:51;;;;;;;14.00;5.28;;;28.70;82.50;;;;;;5093204;28;20043;-65
2023/06/07 13:23:55;;;;;;;7.65;4.45;;;28.70;81.80;;;;;;5093215;28;20046;-65
2023/06/07 13:26:58;;;;;;;8.80;5.75;;;28.60;82.70;;;;;;5092908;28;20317;-63
2023/06/07 13:30:05;;;;;;;12.80;5.28;;;28.60;82.40;;;;;;5093053;28;20035;-64
2023/06/07 13:33:16;;;;;;;9.93;5.55;;;28.60;83.00;;;;;;5092934;28;20047;-66
2023/06/07 13:36:20;;;;;;;9.45;5.30;;;28.60;83.10;;;;;;5092915;28;20047;-66
2023/06/07 13:39:25;;;;;;;8.73;5.30;;;28.60;83.10;;;;;;5092811;28;20221;-64
2023/06/07 13:42:29;;;;;;;12.43;5.50;;;28.60;83.40;;;;;;5092668;28;20399;-66
2023/06/07 13:45:33;;;;;;;15.48;5.50;;;28.70;83.10;;;;;;5092667;28;20047;-64
2023/06/07 13:48:41;;;;;;;9.25;4.57;;;28.80;82.80;;;;;;5092774;28;20047;-65
2023/06/07 13:51:45;;;;;;;12.38;5.25;;;28.80;82.70;;;;;;5080520;28;20391;-66
2023/06/07 13:54:49;;;;;;;13.23;5.07;;;28.80;82.80;;;;;;5080059;28;20039;-66
2023/06/07 13:57:54;;;;;;;10.52;4.60;;;28.80;82.20;;;;;;5092631;28;20058;-66
2023/06/07 14:01:02;;;;;;;77.72;10.05;;;28.80;82.50;;;;;;5080247;28;20047;-66
2023/06/07 14:04:07;;;;;;;96.97;10.63;;;28.80;82.70;;;;;;5092430;28;20051;-66
2023/06/07 14:07:10;;;;;;;32.00;7.63;;;28.80;81.90;;;;;;5079705;28;20055;-67
2023/06/07 14:10:16;;;;;;;62.38;10.75;;;28.80;82.50;;;;;;5092540;28;20047;-66
2023/06/07 14:13:20;;;;;;;31.58;9.52;;;28.80;81.80;;;;;;5091943;28;20039;-66
2023/06/07 14:16:25;;;;;;;43.20;8.70;;;28.70;82.50;;;;;;5092435;28;20043;-69
2023/06/07 14:19:29;;;;;;;10.90;5.15;;;28.70;82.00;;;;;;5092274;28;20341;-69
2023/06/07 14:22:33;;;;;;;13.77;5.88;;;28.70;82.00;;;;;;5092257;28;20045;-71
2023/06/07 14:25:37;;;;;;;10.73;4.90;;;28.70;82.60;;;;;;5091820;28;20499;-69
2023/06/07 14:28:43;;;;;;;14.63;6.07;;;28.60;82.10;;;;;;5092247;28;20063;-74
2023/06/07 14:31:47;;;;;;;10.93;5.25;;;28.60;83.00;;;;;;5091836;28;20050;-71
2023/06/07 14:34:52;;;;;;;6.63;4.65;;;28.50;82.10;;;;;;5079537;28;20403;-67
2023/06/07 14:37:55;;;;;;;8.23;4.63;;;28.50;83.30;;;;;;5091916;28;20054;-70
2023/06/07 14:40:59;;;;;;;10.85;5.60;;;28.50;82.30;;;;;;5090923;28;20395;-69
2023/06/07 14:44:06;;;;;;;8.30;4.88;;;28.50;82.70;;;;;;5091343;28;20050;-68
2023/06/07 14:47:11;;;;;;;10.23;5.30;;;28.40;82.10;;;;;;5091589;28;20438;-68
2023/06/07 14:50:15;;;;;;;16.55;5.60;;;28.40;82.60;;;;;;5091295;28;20047;-69
2023/06/07 14:53:19;;;;;;;8.55;4.80;;;28.40;82.20;;;;;;5091441;28;20105;-69
2023/06/07 14:56:23;;;;;;;29.52;6.32;;;28.40;82.50;;;;;;5079106;28;20051;-69
2023/06/07 14:59:28;;;;;;;9.15;5.13;;;28.40;82.00;;;;;;5091101;28;20047;-68
2023/06/07 15:02:34;;;;;;;20.17;5.90;;;28.40;83.00;;;;;;5091317;28;20043;-69
2023/06/07 15:05:39;;;;;;;9.77;4.88;;;28.40;83.00;;;;;;5091309;28;20114;-70
2023/06/07 15:08:43;;;;;;;8.55;4.40;;;28.40;82.00;;;;;;5091058;28;20056;-69
2023/06/07 15:11:47;;;;;;;12.07;5.53;;;28.40;83.00;;;;;;5091837;28;20038;-67
2023/06/07 15:14:50;;;;;;;14.85;4.50;;;28.40;82.60;;;;;;5091353;28;20047;-67
2023/06/07 15:17:55;;;;;;;10.50;5.38;;;28.30;81.30;;;;;;5091229;28;20054;-65
2023/06/07 15:20:59;;;;;;;6.63;4.07;;;28.30;82.10;;;;;;5091183;28;20035;-66
2023/06/07 15:24:04;;;;;;;13.55;4.47;;;28.20;81.60;;;;;;5090983;28;20391;-67
2023/06/07 15:27:08;;;;;;;11.57;4.80;;;28.20;82.10;;;;;;5090770;28;20043;-66
2023/06/07 15:30:12;;;;;;;6.90;4.13;;;28.20;82.30;;;;;;5091264;28;20059;-65
2023/06/07 15:33:16;;;;;;;13.85;4.72;;;28.20;83.40;;;;;;5090829;28;20043;-66
2023/06/07 15:36:20;;;;;;;15.75;4.90;;;28.10;82.10;;;;;;5090767;28;20045;-65
2023/06/07 15:39:24;;;;;;;7.35;4.20;;;28.10;83.00;;;;;;5078523;28;20039;-65
2023/06/07 15:42:28;;;;;;;14.95;5.10;;;28.10;83.60;;;;;;5090917;28;20047;-66
2023/06/07 15:45:32;;;;;;;11.65;4.18;;;28.10;83.20;;;;;;5090816;28;20063;-65
2023/06/07 15:48:36;;;;;;;15.23;4.80;;;28.10;83.60;;;;;;5090710;28;20047;-66
2023/06/07 15:51:41;;;;;;;10.93;5.10;;;28.10;83.80;;;;;;5093072;28;20047;-66